sensor_id;sensor_type;location;lat;lon;timestamp;pressure;altitude;pressure_sealevel;temperature;humidity
9521;BME280;4798;41.574;23.734;2023-05-02T00:02:15;95813.72;;;11.11;100.00
9521;BME280;4798;41.574;23.734;2023-05-02T00:04:44;95799.38;;;11.02;100.00
9521;BME280;4798;41.574;23.734;2023-05-02T00:07:12;95810.09;;;11.32;100.00
9521;BME280;4798;41.574;23.734;2023-05-02T00:09:40;95812.75;;;11.37;100.00
9521;BME280;4798;41.574;23.734;2023-05-02T00:12:09;95817.56;;;11.56;100.00
9521;BME280;4798;41.574;23.734;2023-05-02T00:14:38;95814.34;;;11.43;100.00
9521;BME280;4798;41.574;23.734;2023-05-02T00:17:07;95800.84;;;11.55;100.00
9521;BME280;4798;41.574;23.734;2023-05-02T00:19:37;95813.84;;;11.62;100.00
9521;BME280;4798;41.574;23.734;2023-05-02T00:22:05;95822.06;;;11.55;100.00
9521;BME280;4798;41.574;23.734;2023-05-02T00:24:34;95819.16;;;11.57;100.00
9521;BME280;4798;41.574;23.734;2023-05-02T00:27:02;95812.78;;;11.53;100.00
9521;BME280;4798;41.574;23.734;2023-05-02T00:29:32;95825.78;;;11.59;100.00
9521;BME280;4798;41.574;23.734;2023-05-02T00:32:01;95826.88;;;11.58;100.00
9521;BME280;4798;41.574;23.734;2023-05-02T00:34:30;95823.91;;;11.49;100.00
9521;BME280;4798;41.574;23.734;2023-05-02T00:36:58;95828.16;;;11.45;100.00
9521;BME280;4798;41.574;23.734;2023-05-02T00:39:26;95830.81;;;11.40;100.00
9521;BME280;4798;41.574;23.734;2023-05-02T00:41:58;95814.84;;;11.30;100.00
9521;BME280;4798;41.574;23.734;2023-05-02T00:44:27;95831.31;;;11.37;100.00
9521;BME280;4798;41.574;23.734;2023-05-02T00:46:55;95834.25;;;11.46;100.00
9521;BME280;4798;41.574;23.734;2023-05-02T00:49:25;95841.69;;;11.44;100.00
9521;BME280;4798;41.574;23.734;2023-05-02T00:51:54;95842.50;;;11.44;100.00
9521;BME280;4798;41.574;23.734;2023-05-02T00:54:22;95835.56;;;11.43;100.00
9521;BME280;4798;41.574;23.734;2023-05-02T00:56:50;95839.81;;;11.39;100.00
9521;BME280;4798;41.574;23.734;2023-05-02T00:59:19;95840.59;;;11.35;100.00
9521;BME280;4798;41.574;23.734;2023-05-02T01:01:54;95833.94;;;11.27;100.00
9521;BME280;4798;41.574;23.734;2023-05-02T01:04:36;95833.63;;;11.14;100.00
9521;BME280;4798;41.574;23.734;2023-05-02T01:07:20;95774.63;;;10.81;100.00
9521;BME280;4798;41.574;23.734;2023-05-02T01:10:01;95826.81;;;11.33;100.00
9521;BME280;4798;41.574;23.734;2023-05-02T01:12:36;95833.97;;;11.37;100.00
9521;BME280;4798;41.574;23.734;2023-05-02T01:15:11;95837.56;;;11.01;100.00
9521;BME280;4798;41.574;23.734;2023-05-02T01:17:41;95842.84;;;10.49;100.00
9521;BME280;4798;41.574;23.734;2023-05-02T01:20:14;95844.41;;;10.45;100.00
9521;BME280;4798;41.574;23.734;2023-05-02T01:22:44;95791.06;;;10.00;100.00
9521;BME280;4798;41.574;23.734;2023-05-02T01:25:19;95848.81;;;10.03;100.00
9521;BME280;4798;41.574;23.734;2023-05-02T01:27:56;95834.72;;;10.24;100.00
9521;BME280;4798;41.574;23.734;2023-05-02T01:30:31;95836.03;;;10.63;100.00
9521;BME280;4798;41.574;23.734;2023-05-02T01:33:01;95836.09;;;10.73;100.00
9521;BME280;4798;41.574;23.734;2023-05-02T01:35:32;95832.97;;;10.81;100.00
9521;BME280;4798;41.574;23.734;2023-05-02T01:38:02;95832.97;;;10.87;100.00
9521;BME280;4798;41.574;23.734;2023-05-02T01:40:34;95838.00;;;10.88;100.00
9521;BME280;4798;41.574;23.734;2023-05-02T01:43:04;95833.00;;;10.92;100.00
9521;BME280;4798;41.574;23.734;2023-05-02T01:45:37;95830.31;;;10.81;100.00
9521;BME280;4798;41.574;23.734;2023-05-02T01:48:06;95818.09;;;10.80;100.00
9521;BME280;4798;41.574;23.734;2023-05-02T01:50:36;95818.38;;;10.79;100.00
9521;BME280;4798;41.574;23.734;2023-05-02T01:53:07;95814.25;;;10.56;100.00
9521;BME280;4798;41.574;23.734;2023-05-02T01:55:42;95829.72;;;10.69;100.00
9521;BME280;4798;41.574;23.734;2023-05-02T01:58:13;95829.41;;;10.66;100.00
9521;BME280;4798;41.574;23.734;2023-05-02T02:00:44;95827.88;;;10.70;100.00
9521;BME280;4798;41.574;23.734;2023-05-02T02:03:14;95828.47;;;10.82;100.00
9521;BME280;4798;41.574;23.734;2023-05-02T02:05:46;95826.84;;;10.81;100.00
9521;BME280;4798;41.574;23.734;2023-05-02T02:08:15;95834.56;;;10.41;100.00
9521;BME280;4798;41.574;23.734;2023-05-02T02:10:45;95837.38;;;10.66;100.00
9521;BME280;4798;41.574;23.734;2023-05-02T02:13:30;95833.28;;;10.48;100.00
9521;BME280;4798;41.574;23.734;2023-05-02T02:16:04;95835.22;;;10.63;100.00
9521;BME280;4798;41.574;23.734;2023-05-02T02:18:36;95832.34;;;10.64;100.00
9521;BME280;4798;41.574;23.734;2023-05-02T02:21:07;95778.50;;;10.17;100.00
9521;BME280;4798;41.574;23.734;2023-05-02T02:23:37;95801.50;;;10.11;100.00
9521;BME280;4798;41.574;23.734;2023-05-02T02:26:09;95832.50;;;10.48;100.00
9521;BME280;4798;41.574;23.734;2023-05-02T02:28:39;95825.81;;;10.40;100.00
9521;BME280;4798;41.574;23.734;2023-05-02T02:31:10;95833.88;;;9.92;100.00
9521;BME280;4798;41.574;23.734;2023-05-02T02:33:39;95838.09;;;9.88;100.00
9521;BME280;4798;41.574;23.734;2023-05-02T02:36:14;95838.69;;;9.95;100.00
9521;BME280;4798;41.574;23.734;2023-05-02T02:38:51;95839.25;;;9.70;100.00
9521;BME280;4798;41.574;23.734;2023-05-02T02:41:26;95843.22;;;9.41;100.00
9521;BME280;4798;41.574;23.734;2023-05-02T02:44:03;95845.06;;;9.19;100.00
9521;BME280;4798;41.574;23.734;2023-05-02T02:46:45;95849.09;;;9.00;100.00
9521;BME280;4798;41.574;23.734;2023-05-02T02:49:21;95839.41;;;8.88;100.00
9521;BME280;4798;41.574;23.734;2023-05-02T02:51:57;95843.53;;;9.23;100.00
9521;BME280;4798;41.574;23.734;2023-05-02T02:54:33;95849.81;;;9.17;100.00
9521;BME280;4798;41.574;23.734;2023-05-02T02:57:09;95852.47;;;9.17;100.00
9521;BME280;4798;41.574;23.734;2023-05-02T02:59:43;95846.72;;;9.25;100.00
9521;BME280;4798;41.574;23.734;2023-05-02T03:02:17;95840.91;;;9.23;100.00
9521;BME280;4798;41.574;23.734;2023-05-02T03:04:49;95843.88;;;9.31;100.00
9521;BME280;4798;41.574;23.734;2023-05-02T03:07:18;95856.19;;;9.42;100.00
9521;BME280;4798;41.574;23.734;2023-05-02T03:09:47;95855.44;;;9.47;100.00
9521;BME280;4798;41.574;23.734;2023-05-02T03:12:15;95854.25;;;9.86;100.00
9521;BME280;4798;41.574;23.734;2023-05-02T03:14:43;95857.91;;;10.12;100.00
9521;BME280;4798;41.574;23.734;2023-05-02T03:17:12;95859.91;;;10.00;100.00
9521;BME280;4798;41.574;23.734;2023-05-02T03:19:42;95864.66;;;10.25;100.00
9521;BME280;4798;41.574;23.734;2023-05-02T03:22:10;95859.69;;;10.33;100.00
9521;BME280;4798;41.574;23.734;2023-05-02T03:24:38;95858.03;;;10.64;100.00
9521;BME280;4798;41.574;23.734;2023-05-02T03:27:06;95844.41;;;10.87;100.00
9521;BME280;4798;41.574;23.734;2023-05-02T03:29:35;95852.41;;;10.97;100.00
9521;BME280;4798;41.574;23.734;2023-05-02T03:32:03;95855.25;;;10.85;100.00
9521;BME280;4798;41.574;23.734;2023-05-02T03:34:31;95845.53;;;11.06;100.00
9521;BME280;4798;41.574;23.734;2023-05-02T03:37:01;95858.25;;;11.04;100.00
9521;BME280;4798;41.574;23.734;2023-05-02T03:39:30;95859.41;;;10.71;100.00
9521;BME280;4798;41.574;23.734;2023-05-02T03:41:58;95861.19;;;10.61;100.00
9521;BME280;4798;41.574;23.734;2023-05-02T03:44:27;95867.94;;;10.78;100.00
9521;BME280;4798;41.574;23.734;2023-05-02T03:46:55;95860.06;;;10.47;100.00
9521;BME280;4798;41.574;23.734;2023-05-02T03:49:24;95860.94;;;10.57;100.00
9521;BME280;4798;41.574;23.734;2023-05-02T03:51:52;95872.00;;;10.17;100.00
9521;BME280;4798;41.574;23.734;2023-05-02T03:54:22;95869.56;;;10.43;100.00
9521;BME280;4798;41.574;23.734;2023-05-02T03:56:52;95860.75;;;10.32;100.00
9521;BME280;4798;41.574;23.734;2023-05-02T03:59:20;95879.59;;;10.72;100.00
9521;BME280;4798;41.574;23.734;2023-05-02T04:01:49;95860.78;;;10.37;100.00
9521;BME280;4798;41.574;23.734;2023-05-02T04:04:17;95883.09;;;10.46;100.00
9521;BME280;4798;41.574;23.734;2023-05-02T04:06:46;95881.38;;;9.98;100.00
9521;BME280;4798;41.574;23.734;2023-05-02T04:09:14;95885.56;;;10.21;100.00
9521;BME280;4798;41.574;23.734;2023-05-02T04:11:44;95841.00;;;9.86;100.00
9521;BME280;4798;41.574;23.734;2023-05-02T04:14:13;95889.47;;;10.50;100.00
9521;BME280;4798;41.574;23.734;2023-05-02T04:16:41;95878.75;;;10.67;100.00
9521;BME280;4798;41.574;23.734;2023-05-02T04:19:14;95884.50;;;11.01;100.00
9521;BME280;4798;41.574;23.734;2023-05-02T04:21:44;95890.88;;;11.00;100.00
9521;BME280;4798;41.574;23.734;2023-05-02T04:24:13;95891.06;;;11.40;100.00
9521;BME280;4798;41.574;23.734;2023-05-02T04:26:41;95887.47;;;11.71;100.00
9521;BME280;4798;41.574;23.734;2023-05-02T04:29:11;95866.44;;;11.65;100.00
9521;BME280;4798;41.574;23.734;2023-05-02T04:31:39;95841.38;;;11.20;100.00
9521;BME280;4798;41.574;23.734;2023-05-02T04:34:08;95721.88;;;9.86;100.00
9521;BME280;4798;41.574;23.734;2023-05-02T04:36:36;95890.41;;;11.13;100.00
9521;BME280;4798;41.574;23.734;2023-05-02T04:39:04;95891.53;;;10.75;100.00
9521;BME280;4798;41.574;23.734;2023-05-02T04:41:33;95896.91;;;10.48;100.00
9521;BME280;4798;41.574;23.734;2023-05-02T04:44:02;95890.34;;;10.61;100.00
9521;BME280;4798;41.574;23.734;2023-05-02T04:46:32;95895.56;;;10.82;100.00
9521;BME280;4798;41.574;23.734;2023-05-02T04:49:00;95892.09;;;10.82;100.00
9521;BME280;4798;41.574;23.734;2023-05-02T04:51:28;95883.88;;;10.83;100.00
9521;BME280;4798;41.574;23.734;2023-05-02T04:53:57;95894.94;;;11.17;100.00
9521;BME280;4798;41.574;23.734;2023-05-02T04:56:26;95893.75;;;11.50;100.00
9521;BME280;4798;41.574;23.734;2023-05-02T04:58:54;95904.50;;;11.23;100.00
9521;BME280;4798;41.574;23.734;2023-05-02T05:01:23;95896.03;;;11.31;100.00
9521;BME280;4798;41.574;23.734;2023-05-02T05:03:55;95902.47;;;11.40;100.00
9521;BME280;4798;41.574;23.734;2023-05-02T05:06:24;95899.03;;;11.45;100.00
9521;BME280;4798;41.574;23.734;2023-05-02T05:08:52;95895.09;;;11.58;100.00
9521;BME280;4798;41.574;23.734;2023-05-02T05:11:20;95900.34;;;11.42;100.00
9521;BME280;4798;41.574;23.734;2023-05-02T05:13:49;95903.19;;;11.31;100.00
9521;BME280;4798;41.574;23.734;2023-05-02T05:16:17;95896.41;;;11.55;100.00
9521;BME280;4798;41.574;23.734;2023-05-02T05:18:45;95896.78;;;11.79;100.00
9521;BME280;4798;41.574;23.734;2023-05-02T05:21:16;95902.09;;;11.84;100.00
9521;BME280;4798;41.574;23.734;2023-05-02T05:23:44;95895.50;;;12.17;100.00
9521;BME280;4798;41.574;23.734;2023-05-02T05:26:14;95885.66;;;12.12;100.00
9521;BME280;4798;41.574;23.734;2023-05-02T05:28:43;95898.41;;;12.60;100.00
9521;BME280;4798;41.574;23.734;2023-05-02T05:31:13;95908.50;;;12.79;100.00
9521;BME280;4798;41.574;23.734;2023-05-02T05:33:43;95890.69;;;12.89;100.00
9521;BME280;4798;41.574;23.734;2023-05-02T05:36:12;95905.84;;;12.73;100.00
9521;BME280;4798;41.574;23.734;2023-05-02T05:38:42;95852.63;;;12.89;100.00
9521;BME280;4798;41.574;23.734;2023-05-02T05:41:11;95889.88;;;12.94;97.89
9521;BME280;4798;41.574;23.734;2023-05-02T05:43:39;95836.25;;;12.31;99.79
9521;BME280;4798;41.574;23.734;2023-05-02T05:46:08;95902.13;;;12.90;97.64
9521;BME280;4798;41.574;23.734;2023-05-02T05:48:36;95905.88;;;12.58;99.55
9521;BME280;4798;41.574;23.734;2023-05-02T05:51:05;95890.72;;;12.19;100.00
9521;BME280;4798;41.574;23.734;2023-05-02T05:53:33;95902.41;;;12.43;100.00
9521;BME280;4798;41.574;23.734;2023-05-02T05:56:09;95895.22;;;12.63;100.00
9521;BME280;4798;41.574;23.734;2023-05-02T05:58:38;95895.47;;;12.82;100.00
9521;BME280;4798;41.574;23.734;2023-05-02T06:01:07;95899.13;;;13.21;100.00
9521;BME280;4798;41.574;23.734;2023-05-02T06:03:35;95899.47;;;12.85;100.00
9521;BME280;4798;41.574;23.734;2023-05-02T06:06:04;95903.50;;;12.67;100.00
9521;BME280;4798;41.574;23.734;2023-05-02T06:08:33;95903.72;;;12.75;100.00
9521;BME280;4798;41.574;23.734;2023-05-02T06:11:01;95906.88;;;13.03;99.67
9521;BME280;4798;41.574;23.734;2023-05-02T06:13:31;95900.47;;;13.04;98.57
9521;BME280;4798;41.574;23.734;2023-05-02T06:15:59;95916.50;;;12.79;100.00
9521;BME280;4798;41.574;23.734;2023-05-02T06:18:29;95903.56;;;13.46;100.00
9521;BME280;4798;41.574;23.734;2023-05-02T06:20:57;95740.78;;;12.40;96.75
9521;BME280;4798;41.574;23.734;2023-05-02T06:23:29;95906.81;;;13.38;98.33
9521;BME280;4798;41.574;23.734;2023-05-02T06:25:59;95903.91;;;13.29;100.00
9521;BME280;4798;41.574;23.734;2023-05-02T06:28:28;95900.97;;;14.34;94.36
9521;BME280;4798;41.574;23.734;2023-05-02T06:30:59;95896.56;;;14.82;89.83
9521;BME280;4798;41.574;23.734;2023-05-02T06:33:28;95866.09;;;14.59;89.21
9521;BME280;4798;41.574;23.734;2023-05-02T06:35:57;95890.94;;;15.12;86.66
9521;BME280;4798;41.574;23.734;2023-05-02T06:38:28;95880.53;;;15.76;81.56
9521;BME280;4798;41.574;23.734;2023-05-02T06:40:56;95886.03;;;15.43;81.39
9521;BME280;4798;41.574;23.734;2023-05-02T06:43:25;95877.97;;;16.60;77.83
9521;BME280;4798;41.574;23.734;2023-05-02T06:45:54;95893.00;;;16.23;81.91
9521;BME280;4798;41.574;23.734;2023-05-02T06:48:25;95889.59;;;15.80;78.94
9521;BME280;4798;41.574;23.734;2023-05-02T06:50:53;95874.56;;;15.66;79.41
9521;BME280;4798;41.574;23.734;2023-05-02T06:53:21;95857.25;;;16.33;87.40
9521;BME280;4798;41.574;23.734;2023-05-02T06:55:50;95881.06;;;15.78;80.65
9521;BME280;4798;41.574;23.734;2023-05-02T06:58:18;95873.78;;;16.03;78.11
9521;BME280;4798;41.574;23.734;2023-05-02T07:00:46;95868.09;;;16.41;80.86
9521;BME280;4798;41.574;23.734;2023-05-02T07:03:16;95875.31;;;16.92;75.28
9521;BME280;4798;41.574;23.734;2023-05-02T07:05:45;95867.28;;;16.60;74.86
9521;BME280;4798;41.574;23.734;2023-05-02T07:08:13;95863.78;;;17.87;75.48
9521;BME280;4798;41.574;23.734;2023-05-02T07:10:42;95868.78;;;17.25;74.19
9521;BME280;4798;41.574;23.734;2023-05-02T07:13:10;95871.78;;;17.64;70.96
9521;BME280;4798;41.574;23.734;2023-05-02T07:15:38;95864.59;;;17.73;70.04
9521;BME280;4798;41.574;23.734;2023-05-02T07:18:07;95874.03;;;18.20;70.50
9521;BME280;4798;41.574;23.734;2023-05-02T07:20:35;95877.75;;;18.11;67.43
9521;BME280;4798;41.574;23.734;2023-05-02T07:23:06;95868.31;;;18.80;67.90
9521;BME280;4798;41.574;23.734;2023-05-02T07:25:35;95868.63;;;18.34;66.41
9521;BME280;4798;41.574;23.734;2023-05-02T07:28:03;95869.09;;;18.80;64.60
9521;BME280;4798;41.574;23.734;2023-05-02T07:30:32;95835.78;;;17.79;65.35
9521;BME280;4798;41.574;23.734;2023-05-02T07:33:00;95869.69;;;18.69;64.89
9521;BME280;4798;41.574;23.734;2023-05-02T07:35:28;95864.06;;;20.40;60.35
9521;BME280;4798;41.574;23.734;2023-05-02T07:37:57;95865.00;;;20.26;59.36
9521;BME280;4798;41.574;23.734;2023-05-02T07:40:26;95859.84;;;21.02;59.15
9521;BME280;4798;41.574;23.734;2023-05-02T07:42:57;95861.53;;;20.43;58.86
9521;BME280;4798;41.574;23.734;2023-05-02T07:45:25;95857.00;;;20.90;57.60
9521;BME280;4798;41.574;23.734;2023-05-02T07:47:54;95855.41;;;21.44;57.52
9521;BME280;4798;41.574;23.734;2023-05-02T07:50:22;95815.75;;;20.98;58.40
9521;BME280;4798;41.574;23.734;2023-05-02T07:52:51;95864.50;;;21.31;55.85
9521;BME280;4798;41.574;23.734;2023-05-02T07:55:20;95864.47;;;22.60;53.76
9521;BME280;4798;41.574;23.734;2023-05-02T07:57:49;95858.19;;;22.89;52.84
9521;BME280;4798;41.574;23.734;2023-05-02T08:00:18;95862.22;;;22.83;52.35
9521;BME280;4798;41.574;23.734;2023-05-02T08:02:47;95841.75;;;22.94;52.86
9521;BME280;4798;41.574;23.734;2023-05-02T08:05:15;95865.09;;;21.74;51.94
9521;BME280;4798;41.574;23.734;2023-05-02T08:07:44;95857.16;;;22.60;51.97
9521;BME280;4798;41.574;23.734;2023-05-02T08:10:12;95852.03;;;22.67;50.25
9521;BME280;4798;41.574;23.734;2023-05-02T08:12:41;95852.94;;;23.04;49.76
9521;BME280;4798;41.574;23.734;2023-05-02T08:15:11;95856.41;;;23.05;50.35
9521;BME280;4798;41.574;23.734;2023-05-02T08:17:40;95810.03;;;22.70;49.53
9521;BME280;4798;41.574;23.734;2023-05-02T08:20:09;95839.38;;;23.61;49.73
9521;BME280;4798;41.574;23.734;2023-05-02T08:22:37;95835.72;;;24.18;48.14
9521;BME280;4798;41.574;23.734;2023-05-02T08:25:06;95844.72;;;22.47;49.78
9521;BME280;4798;41.574;23.734;2023-05-02T08:27:34;95846.41;;;23.17;50.74
9521;BME280;4798;41.574;23.734;2023-05-02T08:30:03;95836.13;;;24.59;47.63
9521;BME280;4798;41.574;23.734;2023-05-02T08:32:35;95844.28;;;23.23;48.99
9521;BME280;4798;41.574;23.734;2023-05-02T08:35:04;95835.94;;;23.04;48.41
9521;BME280;4798;41.574;23.734;2023-05-02T08:37:33;95829.38;;;24.26;47.73
9521;BME280;4798;41.574;23.734;2023-05-02T08:40:02;95816.81;;;25.20;47.67
9521;BME280;4798;41.574;23.734;2023-05-02T08:42:32;95816.72;;;26.52;43.63
9521;BME280;4798;41.574;23.734;2023-05-02T08:45:01;95767.91;;;25.16;39.25
9521;BME280;4798;41.574;23.734;2023-05-02T08:47:30;95768.00;;;24.18;40.10
9521;BME280;4798;41.574;23.734;2023-05-02T08:50:02;95815.91;;;24.85;40.20
9521;BME280;4798;41.574;23.734;2023-05-02T08:52:31;95810.41;;;25.75;40.15
9521;BME280;4798;41.574;23.734;2023-05-02T08:55:00;95810.00;;;24.39;40.64
9521;BME280;4798;41.574;23.734;2023-05-02T08:57:29;95814.16;;;24.09;40.70
9521;BME280;4798;41.574;23.734;2023-05-02T08:59:58;95805.38;;;24.00;39.78
9521;BME280;4798;41.574;23.734;2023-05-02T09:02:46;95822.84;;;23.06;39.99
9521;BME280;4798;41.574;23.734;2023-05-02T09:05:22;95828.81;;;22.13;40.58
9521;BME280;4798;41.574;23.734;2023-05-02T09:07:51;95819.56;;;22.35;41.88
9521;BME280;4798;41.574;23.734;2023-05-02T09:10:20;95803.94;;;23.66;40.45
9521;BME280;4798;41.574;23.734;2023-05-02T09:12:49;95799.44;;;23.82;40.25
9521;BME280;4798;41.574;23.734;2023-05-02T09:15:18;95771.63;;;23.97;38.65
9521;BME280;4798;41.574;23.734;2023-05-02T09:17:47;95798.91;;;24.17;39.21
9521;BME280;4798;41.574;23.734;2023-05-02T09:20:16;95779.38;;;23.59;39.83
9521;BME280;4798;41.574;23.734;2023-05-02T09:22:49;95789.84;;;25.43;39.18
9521;BME280;4798;41.574;23.734;2023-05-02T09:25:18;95695.66;;;23.78;39.20
9521;BME280;4798;41.574;23.734;2023-05-02T09:27:51;95738.78;;;23.23;39.83
9521;BME280;4798;41.574;23.734;2023-05-02T09:30:22;95765.72;;;23.07;40.51
9521;BME280;4798;41.574;23.734;2023-05-02T09:32:52;95760.13;;;23.49;40.24
9521;BME280;4798;41.574;23.734;2023-05-02T09:35:22;95755.03;;;23.11;40.80
9521;BME280;4798;41.574;23.734;2023-05-02T09:37:55;95761.69;;;23.13;39.94
9521;BME280;4798;41.574;23.734;2023-05-02T09:40:24;95750.41;;;24.12;38.55
9521;BME280;4798;41.574;23.734;2023-05-02T09:42:55;95758.97;;;24.01;39.13
9521;BME280;4798;41.574;23.734;2023-05-02T09:45:24;95758.47;;;24.51;38.82
9521;BME280;4798;41.574;23.734;2023-05-02T09:47:53;95720.72;;;25.05;38.88
9521;BME280;4798;41.574;23.734;2023-05-02T09:50:34;95756.00;;;26.44;35.53
9521;BME280;4798;41.574;23.734;2023-05-02T09:53:07;95752.31;;;25.99;36.29
9521;BME280;4798;41.574;23.734;2023-05-02T09:55:35;95750.03;;;26.77;34.53
9521;BME280;4798;41.574;23.734;2023-05-02T09:58:04;95751.56;;;25.98;33.44
9521;BME280;4798;41.574;23.734;2023-05-02T10:00:40;95753.75;;;25.58;33.74
9521;BME280;4798;41.574;23.734;2023-05-02T10:03:10;95745.56;;;26.08;34.88
9521;BME280;4798;41.574;23.734;2023-05-02T10:05:43;95742.44;;;26.67;34.43
9521;BME280;4798;41.574;23.734;2023-05-02T10:08:13;95734.97;;;25.84;34.22
9521;BME280;4798;41.574;23.734;2023-05-02T10:10:46;95707.00;;;25.83;35.43
9521;BME280;4798;41.574;23.734;2023-05-02T10:13:19;95736.94;;;24.86;38.42
9521;BME280;4798;41.574;23.734;2023-05-02T10:15:49;95734.00;;;25.42;36.11
9521;BME280;4798;41.574;23.734;2023-05-02T10:18:27;95735.66;;;25.62;35.01
9521;BME280;4798;41.574;23.734;2023-05-02T10:20:57;95716.81;;;25.53;34.49
9521;BME280;4798;41.574;23.734;2023-05-02T10:23:28;95735.78;;;24.72;36.01
9521;BME280;4798;41.574;23.734;2023-05-02T10:25:57;95723.97;;;25.27;34.24
9521;BME280;4798;41.574;23.734;2023-05-02T10:28:26;95721.19;;;24.33;35.44
9521;BME280;4798;41.574;23.734;2023-05-02T10:30:56;95718.19;;;24.22;36.18
9521;BME280;4798;41.574;23.734;2023-05-02T10:33:25;95714.69;;;24.22;36.54
9521;BME280;4798;41.574;23.734;2023-05-02T10:35:56;95713.78;;;25.74;35.16
9521;BME280;4798;41.574;23.734;2023-05-02T10:38:24;95710.63;;;26.90;34.16
9521;BME280;4798;41.574;23.734;2023-05-02T10:40:58;95705.47;;;25.48;33.93
9521;BME280;4798;41.574;23.734;2023-05-02T10:43:31;95696.31;;;25.91;33.14
9521;BME280;4798;41.574;23.734;2023-05-02T10:46:01;95692.03;;;27.19;33.16
9521;BME280;4798;41.574;23.734;2023-05-02T10:48:29;95688.63;;;27.78;34.16
9521;BME280;4798;41.574;23.734;2023-05-02T10:50:58;95577.00;;;26.95;31.54
9521;BME280;4798;41.574;23.734;2023-05-02T10:53:29;95685.63;;;27.07;32.04
9521;BME280;4798;41.574;23.734;2023-05-02T10:56:11;95693.47;;;26.44;32.26
9521;BME280;4798;41.574;23.734;2023-05-02T10:58:39;95671.44;;;26.95;32.37
9521;BME280;4798;41.574;23.734;2023-05-02T11:01:35;95675.25;;;27.99;30.81
9521;BME280;4798;41.574;23.734;2023-05-02T11:04:08;95677.28;;;26.74;31.45
9521;BME280;4798;41.574;23.734;2023-05-02T11:09:39;95680.75;;;26.94;30.89
9521;BME280;4798;41.574;23.734;2023-05-02T11:12:09;95663.66;;;26.71;31.30
9521;BME280;4798;41.574;23.734;2023-05-02T11:14:47;95652.09;;;26.55;29.80
9521;BME280;4798;41.574;23.734;2023-05-02T11:17:16;95663.28;;;24.84;31.64
9521;BME280;4798;41.574;23.734;2023-05-02T11:23:18;95654.91;;;26.81;31.83
9521;BME280;4798;41.574;23.734;2023-05-02T11:25:49;95659.41;;;25.90;30.15
9521;BME280;4798;41.574;23.734;2023-05-02T11:28:44;95659.28;;;25.82;31.15
9521;BME280;4798;41.574;23.734;2023-05-02T11:34:41;95665.06;;;25.62;30.95
9521;BME280;4798;41.574;23.734;2023-05-02T11:37:12;95651.50;;;25.62;30.64
9521;BME280;4798;41.574;23.734;2023-05-02T11:39:41;95553.53;;;26.12;31.42
9521;BME280;4798;41.574;23.734;2023-05-02T11:42:10;95644.13;;;26.20;30.19
9521;BME280;4798;41.574;23.734;2023-05-02T11:44:57;95634.75;;;26.85;30.36
9521;BME280;4798;41.574;23.734;2023-05-02T11:47:26;95627.19;;;26.98;30.94
9521;BME280;4798;41.574;23.734;2023-05-02T11:49:56;95635.56;;;26.40;31.14
9521;BME280;4798;41.574;23.734;2023-05-02T11:52:26;95629.31;;;26.40;32.58
9521;BME280;4798;41.574;23.734;2023-05-02T11:54:54;95606.91;;;26.46;31.10
9521;BME280;4798;41.574;23.734;2023-05-02T11:57:22;95624.63;;;25.57;32.76
9521;BME280;4798;41.574;23.734;2023-05-02T11:59:51;95622.16;;;24.20;33.43
9521;BME280;4798;41.574;23.734;2023-05-02T12:02:35;95580.22;;;24.60;33.17
9521;BME280;4798;41.574;23.734;2023-05-02T12:05:04;95608.00;;;25.23;31.49
9521;BME280;4798;41.574;23.734;2023-05-02T12:07:36;95608.25;;;25.53;31.66
9521;BME280;4798;41.574;23.734;2023-05-02T12:10:06;95604.44;;;25.96;32.09
9521;BME280;4798;41.574;23.734;2023-05-02T12:12:35;95595.72;;;26.52;31.41
9521;BME280;4798;41.574;23.734;2023-05-02T12:15:04;95589.63;;;25.52;31.42
9521;BME280;4798;41.574;23.734;2023-05-02T12:17:37;95589.63;;;25.52;31.44
9521;BME280;4798;41.574;23.734;2023-05-02T12:20:08;95604.59;;;26.03;30.37
9521;BME280;4798;41.574;23.734;2023-05-02T12:22:37;95591.16;;;26.56;29.78
9521;BME280;4798;41.574;23.734;2023-05-02T12:25:07;95588.38;;;26.29;30.29
9521;BME280;4798;41.574;23.734;2023-05-02T12:27:35;95588.78;;;26.77;29.66
9521;BME280;4798;41.574;23.734;2023-05-02T12:30:05;95587.41;;;27.42;29.54
9521;BME280;4798;41.574;23.734;2023-05-02T12:32:35;95584.50;;;27.32;29.70
9521;BME280;4798;41.574;23.734;2023-05-02T12:35:04;95571.81;;;27.73;30.16
9521;BME280;4798;41.574;23.734;2023-05-02T12:37:32;95579.41;;;27.27;30.06
9521;BME280;4798;41.574;23.734;2023-05-02T12:40:01;95562.13;;;27.79;29.86
9521;BME280;4798;41.574;23.734;2023-05-02T12:42:29;95557.06;;;28.10;28.78
9521;BME280;4798;41.574;23.734;2023-05-02T12:45:00;95556.13;;;26.28;30.98
9521;BME280;4798;41.574;23.734;2023-05-02T12:47:28;95549.94;;;27.36;30.17
9521;BME280;4798;41.574;23.734;2023-05-02T12:49:59;95547.16;;;28.39;29.65
9521;BME280;4798;41.574;23.734;2023-05-02T12:52:45;95530.38;;;28.81;29.62
9521;BME280;4798;41.574;23.734;2023-05-02T12:55:14;95534.91;;;27.42;29.93
9521;BME280;4798;41.574;23.734;2023-05-02T12:57:43;95533.59;;;26.27;31.13
9521;BME280;4798;41.574;23.734;2023-05-02T13:00:12;95520.25;;;26.19;30.06
9521;BME280;4798;41.574;23.734;2023-05-02T13:02:43;95526.75;;;26.86;31.31
9521;BME280;4798;41.574;23.734;2023-05-02T13:05:17;95524.94;;;26.44;30.63
9521;BME280;4798;41.574;23.734;2023-05-02T13:07:46;95482.34;;;26.78;29.62
9521;BME280;4798;41.574;23.734;2023-05-02T13:10:14;95525.91;;;25.65;31.40
9521;BME280;4798;41.574;23.734;2023-05-02T13:12:44;95535.59;;;24.89;31.80
9521;BME280;4798;41.574;23.734;2023-05-02T13:15:13;95539.19;;;24.62;33.33
9521;BME280;4798;41.574;23.734;2023-05-02T13:17:41;95548.53;;;24.80;31.79
9521;BME280;4798;41.574;23.734;2023-05-02T13:20:11;95546.22;;;24.16;32.55
9521;BME280;4798;41.574;23.734;2023-05-02T13:22:41;95545.66;;;23.79;32.33
9521;BME280;4798;41.574;23.734;2023-05-02T13:25:09;95542.03;;;24.34;32.66
9521;BME280;4798;41.574;23.734;2023-05-02T13:27:38;95537.72;;;23.86;33.48
9521;BME280;4798;41.574;23.734;2023-05-02T13:30:08;95533.09;;;24.49;32.15
9521;BME280;4798;41.574;23.734;2023-05-02T13:32:38;95516.22;;;23.62;32.24
9521;BME280;4798;41.574;23.734;2023-05-02T13:35:07;95530.22;;;23.24;33.14